sensor_id;sensor_type;location;lat;lon;timestamp;P1;durP1;ratioP1;P2;durP2;ratioP2
36415;SDS011;22447;44.530;18.620;2022-12-04T00:00:11;478.20;;;122.93;;
36415;SDS011;22447;44.530;18.620;2022-12-04T00:02:38;385.67;;;111.57;;
36415;SDS011;22447;44.530;18.620;2022-12-04T00:05:05;439.48;;;110.97;;
36415;SDS011;22447;44.530;18.620;2022-12-04T00:07:32;491.25;;;115.65;;
36415;SDS011;22447;44.530;18.620;2022-12-04T00:09:59;803.38;;;140.07;;
36415;SDS011;22447;44.530;18.620;2022-12-04T00:12:25;426.10;;;111.75;;
36415;SDS011;22447;44.530;18.620;2022-12-04T00:14:51;524.78;;;118.55;;
36415;SDS011;22447;44.530;18.620;2022-12-04T00:17:17;570.50;;;127.35;;
36415;SDS011;22447;44.530;18.620;2022-12-04T00:19:43;639.97;;;132.43;;
36415;SDS011;22447;44.530;18.620;2022-12-04T00:22:09;401.90;;;109.80;;
36415;SDS011;22447;44.530;18.620;2022-12-04T00:24:35;403.58;;;105.05;;
36415;SDS011;22447;44.530;18.620;2022-12-04T00:27:01;465.77;;;117.75;;
36415;SDS011;22447;44.530;18.620;2022-12-04T00:29:27;730.38;;;136.15;;
36415;SDS011;22447;44.530;18.620;2022-12-04T00:31:53;463.02;;;123.88;;
36415;SDS011;22447;44.530;18.620;2022-12-04T00:34:19;463.30;;;120.25;;
36415;SDS011;22447;44.530;18.620;2022-12-04T00:36:47;672.92;;;141.75;;
36415;SDS011;22447;44.530;18.620;2022-12-04T00:39:13;428.10;;;111.85;;
36415;SDS011;22447;44.530;18.620;2022-12-04T00:41:39;406.52;;;109.60;;
36415;SDS011;22447;44.530;18.620;2022-12-04T00:44:05;462.88;;;115.80;;
36415;SDS011;22447;44.530;18.620;2022-12-04T00:46:30;505.42;;;120.65;;
36415;SDS011;22447;44.530;18.620;2022-12-04T00:48:56;505.38;;;115.10;;
36415;SDS011;22447;44.530;18.620;2022-12-04T00:51:26;391.52;;;104.57;;
36415;SDS011;22447;44.530;18.620;2022-12-04T00:53:52;536.75;;;121.80;;
36415;SDS011;22447;44.530;18.620;2022-12-04T00:56:20;428.13;;;112.68;;
36415;SDS011;22447;44.530;18.620;2022-12-04T00:58:50;432.63;;;113.70;;
36415;SDS011;22447;44.530;18.620;2022-12-04T01:01:18;411.90;;;109.18;;
36415;SDS011;22447;44.530;18.620;2022-12-04T01:03:45;377.42;;;103.82;;
36415;SDS011;22447;44.530;18.620;2022-12-04T01:08:44;462.92;;;114.35;;
36415;SDS011;22447;44.530;18.620;2022-12-04T01:11:10;479.23;;;112.10;;
36415;SDS011;22447;44.530;18.620;2022-12-04T01:13:35;599.15;;;124.93;;
36415;SDS011;22447;44.530;18.620;2022-12-04T01:16:02;632.83;;;129.98;;
36415;SDS011;22447;44.530;18.620;2022-12-04T01:18:28;646.45;;;126.78;;
36415;SDS011;22447;44.530;18.620;2022-12-04T01:20:54;525.28;;;114.63;;
36415;SDS011;22447;44.530;18.620;2022-12-04T01:23:19;467.77;;;112.15;;
36415;SDS011;22447;44.530;18.620;2022-12-04T01:25:49;361.13;;;106.57;;
36415;SDS011;22447;44.530;18.620;2022-12-04T01:28:16;635.38;;;135.20;;
36415;SDS011;22447;44.530;18.620;2022-12-04T01:30:42;411.27;;;108.80;;
36415;SDS011;22447;44.530;18.620;2022-12-04T01:33:08;367.30;;;104.45;;
36415;SDS011;22447;44.530;18.620;2022-12-04T01:35:34;426.95;;;112.70;;
36415;SDS011;22447;44.530;18.620;2022-12-04T01:38:00;374.33;;;105.03;;
36415;SDS011;22447;44.530;18.620;2022-12-04T01:40:26;483.67;;;120.75;;
36415;SDS011;22447;44.530;18.620;2022-12-04T01:42:52;439.38;;;109.88;;
36415;SDS011;22447;44.530;18.620;2022-12-04T01:47:57;393.73;;;105.97;;
36415;SDS011;22447;44.530;18.620;2022-12-04T01:50:40;521.97;;;121.20;;
36415;SDS011;22447;44.530;18.620;2022-12-04T01:53:07;379.13;;;106.75;;
36415;SDS011;22447;44.530;18.620;2022-12-04T01:55:33;487.60;;;118.95;;
36415;SDS011;22447;44.530;18.620;2022-12-04T01:57:59;377.05;;;105.28;;
36415;SDS011;22447;44.530;18.620;2022-12-04T02:00:26;375.77;;;106.03;;
36415;SDS011;22447;44.530;18.620;2022-12-04T02:02:52;494.88;;;118.25;;
36415;SDS011;22447;44.530;18.620;2022-12-04T02:05:20;324.58;;;101.70;;
36415;SDS011;22447;44.530;18.620;2022-12-04T02:07:47;336.23;;;99.93;;
36415;SDS011;22447;44.530;18.620;2022-12-04T02:10:15;694.97;;;136.60;;
36415;SDS011;22447;44.530;18.620;2022-12-04T02:18:13;293.05;;;94.07;;
36415;SDS011;22447;44.530;18.620;2022-12-04T02:23:49;391.40;;;113.78;;
36415;SDS011;22447;44.530;18.620;2022-12-04T02:29:27;316.50;;;102.90;;
36415;SDS011;22447;44.530;18.620;2022-12-04T02:32:21;308.85;;;102.13;;
36415;SDS011;22447;44.530;18.620;2022-12-04T02:35:06;249.73;;;91.65;;
36415;SDS011;22447;44.530;18.620;2022-12-04T02:38:16;321.20;;;103.47;;
36415;SDS011;22447;44.530;18.620;2022-12-04T02:40:58;261.00;;;95.50;;
36415;SDS011;22447;44.530;18.620;2022-12-04T02:44:05;230.15;;;86.30;;
36415;SDS011;22447;44.530;18.620;2022-12-04T02:46:28;261.77;;;91.68;;
36415;SDS011;22447;44.530;18.620;2022-12-04T02:49:00;237.85;;;88.47;;
36415;SDS011;22447;44.530;18.620;2022-12-04T02:51:30;244.93;;;90.03;;
36415;SDS011;22447;44.530;18.620;2022-12-04T02:54:09;344.70;;;108.50;;
36415;SDS011;22447;44.530;18.620;2022-12-04T02:56:47;275.13;;;94.15;;
36415;SDS011;22447;44.530;18.620;2022-12-04T02:59:19;260.20;;;91.75;;
36415;SDS011;22447;44.530;18.620;2022-12-04T03:01:50;231.93;;;87.40;;
36415;SDS011;22447;44.530;18.620;2022-12-04T03:04:20;219.63;;;87.03;;
36415;SDS011;22447;44.530;18.620;2022-12-04T03:06:50;211.77;;;82.60;;
36415;SDS011;22447;44.530;18.620;2022-12-04T03:10:03;206.95;;;78.25;;
36415;SDS011;22447;44.530;18.620;2022-12-04T03:12:15;228.95;;;86.30;;
36415;SDS011;22447;44.530;18.620;2022-12-04T03:14:47;241.13;;;84.75;;
36415;SDS011;22447;44.530;18.620;2022-12-04T03:17:22;241.38;;;87.03;;
36415;SDS011;22447;44.530;18.620;2022-12-04T03:19:56;264.30;;;91.75;;
36415;SDS011;22447;44.530;18.620;2022-12-04T03:22:26;231.68;;;84.10;;
36415;SDS011;22447;44.530;18.620;2022-12-04T03:24:55;236.05;;;84.50;;
36415;SDS011;22447;44.530;18.620;2022-12-04T03:27:26;223.50;;;81.72;;
36415;SDS011;22447;44.530;18.620;2022-12-04T03:30:19;254.77;;;86.00;;
36415;SDS011;22447;44.530;18.620;2022-12-04T03:32:55;217.60;;;80.82;;
36415;SDS011;22447;44.530;18.620;2022-12-04T03:35:32;236.65;;;84.35;;
36415;SDS011;22447;44.530;18.620;2022-12-04T03:40:58;238.20;;;84.50;;
36415;SDS011;22447;44.530;18.620;2022-12-04T03:46:07;231.68;;;81.10;;
36415;SDS011;22447;44.530;18.620;2022-12-04T03:48:45;287.98;;;94.40;;
36415;SDS011;22447;44.530;18.620;2022-12-04T03:53:58;212.75;;;79.35;;
36415;SDS011;22447;44.530;18.620;2022-12-04T03:56:34;203.52;;;76.55;;
36415;SDS011;22447;44.530;18.620;2022-12-04T03:59:16;167.82;;;71.38;;
36415;SDS011;22447;44.530;18.620;2022-12-04T04:01:47;163.60;;;68.00;;
36415;SDS011;22447;44.530;18.620;2022-12-04T04:04:17;149.88;;;65.70;;
36415;SDS011;22447;44.530;18.620;2022-12-04T04:06:52;182.80;;;70.38;;
36415;SDS011;22447;44.530;18.620;2022-12-04T04:09:23;164.93;;;66.53;;
36415;SDS011;22447;44.530;18.620;2022-12-04T04:14:27;170.77;;;71.03;;
36415;SDS011;22447;44.530;18.620;2022-12-04T04:17:24;160.68;;;67.18;;
36415;SDS011;22447;44.530;18.620;2022-12-04T04:20:23;165.18;;;70.00;;
36415;SDS011;22447;44.530;18.620;2022-12-04T04:23:30;179.20;;;69.53;;
36415;SDS011;22447;44.530;18.620;2022-12-04T04:26:20;150.38;;;66.45;;
36415;SDS011;22447;44.530;18.620;2022-12-04T04:28:48;203.27;;;73.93;;
36415;SDS011;22447;44.530;18.620;2022-12-04T04:42:14;164.85;;;67.07;;
36415;SDS011;22447;44.530;18.620;2022-12-04T04:45:11;167.10;;;71.55;;
36415;SDS011;22447;44.530;18.620;2022-12-04T04:48:01;188.73;;;75.55;;
36415;SDS011;22447;44.530;18.620;2022-12-04T04:50:34;170.02;;;68.60;;
36415;SDS011;22447;44.530;18.620;2022-12-04T04:53:03;172.52;;;70.18;;
36415;SDS011;22447;44.530;18.620;2022-12-04T04:55:33;158.77;;;64.97;;
36415;SDS011;22447;44.530;18.620;2022-12-04T04:58:10;183.68;;;68.72;;
36415;SDS011;22447;44.530;18.620;2022-12-04T05:00:38;165.57;;;67.18;;
36415;SDS011;22447;44.530;18.620;2022-12-04T05:03:05;179.10;;;72.35;;
36415;SDS011;22447;44.530;18.620;2022-12-04T05:05:31;173.48;;;66.63;;
36415;SDS011;22447;44.530;18.620;2022-12-04T05:07:57;163.18;;;65.63;;
36415;SDS011;22447;44.530;18.620;2022-12-04T05:10:23;185.07;;;70.15;;
36415;SDS011;22447;44.530;18.620;2022-12-04T05:12:49;148.55;;;64.10;;
36415;SDS011;22447;44.530;18.620;2022-12-04T05:15:15;163.70;;;64.40;;
36415;SDS011;22447;44.530;18.620;2022-12-04T05:17:41;137.50;;;61.33;;
36415;SDS011;22447;44.530;18.620;2022-12-04T05:20:06;144.55;;;63.05;;
36415;SDS011;22447;44.530;18.620;2022-12-04T05:22:35;143.38;;;62.03;;
36415;SDS011;22447;44.530;18.620;2022-12-04T05:25:01;156.60;;;66.15;;
36415;SDS011;22447;44.530;18.620;2022-12-04T05:27:28;147.75;;;63.83;;
36415;SDS011;22447;44.530;18.620;2022-12-04T05:29:55;167.93;;;64.55;;
36415;SDS011;22447;44.530;18.620;2022-12-04T05:32:23;166.88;;;68.30;;
36415;SDS011;22447;44.530;18.620;2022-12-04T05:34:51;167.02;;;66.20;;
36415;SDS011;22447;44.530;18.620;2022-12-04T05:37:18;161.77;;;65.18;;
36415;SDS011;22447;44.530;18.620;2022-12-04T05:39:44;161.18;;;62.35;;
36415;SDS011;22447;44.530;18.620;2022-12-04T05:42:11;164.07;;;63.38;;
36415;SDS011;22447;44.530;18.620;2022-12-04T05:44:37;172.23;;;64.28;;
36415;SDS011;22447;44.530;18.620;2022-12-04T05:47:04;170.75;;;66.90;;
36415;SDS011;22447;44.530;18.620;2022-12-04T05:49:30;155.50;;;58.63;;
36415;SDS011;22447;44.530;18.620;2022-12-04T05:51:57;152.35;;;61.92;;
36415;SDS011;22447;44.530;18.620;2022-12-04T05:54:24;152.15;;;59.33;;
36415;SDS011;22447;44.530;18.620;2022-12-04T05:56:50;157.10;;;65.72;;
36415;SDS011;22447;44.530;18.620;2022-12-04T05:59:16;162.20;;;64.35;;
36415;SDS011;22447;44.530;18.620;2022-12-04T06:01:43;158.23;;;66.30;;
36415;SDS011;22447;44.530;18.620;2022-12-04T06:04:10;156.00;;;66.68;;
36415;SDS011;22447;44.530;18.620;2022-12-04T06:06:36;152.43;;;64.68;;
36415;SDS011;22447;44.530;18.620;2022-12-04T06:09:03;146.60;;;63.38;;
36415;SDS011;22447;44.530;18.620;2022-12-04T06:11:31;148.40;;;62.75;;
36415;SDS011;22447;44.530;18.620;2022-12-04T06:14:00;145.23;;;62.00;;
36415;SDS011;22447;44.530;18.620;2022-12-04T06:16:28;137.82;;;62.95;;
36415;SDS011;22447;44.530;18.620;2022-12-04T06:18:57;156.95;;;64.80;;
36415;SDS011;22447;44.530;18.620;2022-12-04T06:21:25;142.57;;;63.55;;
36415;SDS011;22447;44.530;18.620;2022-12-04T06:23:52;141.27;;;61.88;;
36415;SDS011;22447;44.530;18.620;2022-12-04T06:26:19;181.57;;;71.10;;
36415;SDS011;22447;44.530;18.620;2022-12-04T06:28:45;153.70;;;67.47;;
36415;SDS011;22447;44.530;18.620;2022-12-04T06:31:12;163.73;;;69.53;;
36415;SDS011;22447;44.530;18.620;2022-12-04T06:33:39;159.32;;;68.95;;
36415;SDS011;22447;44.530;18.620;2022-12-04T06:36:07;150.75;;;63.78;;
36415;SDS011;22447;44.530;18.620;2022-12-04T06:38:35;146.13;;;61.13;;
36415;SDS011;22447;44.530;18.620;2022-12-04T06:41:02;155.48;;;69.25;;
36415;SDS011;22447;44.530;18.620;2022-12-04T06:43:29;153.60;;;68.22;;
36415;SDS011;22447;44.530;18.620;2022-12-04T06:46:14;152.90;;;67.38;;
36415;SDS011;22447;44.530;18.620;2022-12-04T06:48:43;159.77;;;72.22;;
36415;SDS011;22447;44.530;18.620;2022-12-04T06:51:10;151.10;;;64.93;;
36415;SDS011;22447;44.530;18.620;2022-12-04T06:53:38;161.50;;;68.68;;
36415;SDS011;22447;44.530;18.620;2022-12-04T06:56:05;162.80;;;64.68;;
36415;SDS011;22447;44.530;18.620;2022-12-04T06:58:33;154.73;;;66.32;;
36415;SDS011;22447;44.530;18.620;2022-12-04T07:01:04;165.23;;;62.15;;
36415;SDS011;22447;44.530;18.620;2022-12-04T07:03:36;181.57;;;64.88;;
36415;SDS011;22447;44.530;18.620;2022-12-04T07:06:09;189.95;;;63.97;;
36415;SDS011;22447;44.530;18.620;2022-12-04T07:08:44;207.40;;;69.80;;
36415;SDS011;22447;44.530;18.620;2022-12-04T07:11:11;270.80;;;74.35;;
36415;SDS011;22447;44.530;18.620;2022-12-04T07:13:38;218.88;;;72.63;;
36415;SDS011;22447;44.530;18.620;2022-12-04T07:16:04;200.00;;;69.15;;
36415;SDS011;22447;44.530;18.620;2022-12-04T07:18:32;213.93;;;69.57;;
36415;SDS011;22447;44.530;18.620;2022-12-04T07:20:58;179.10;;;66.90;;
36415;SDS011;22447;44.530;18.620;2022-12-04T07:23:24;183.68;;;66.72;;
36415;SDS011;22447;44.530;18.620;2022-12-04T07:25:50;219.70;;;71.70;;
36415;SDS011;22447;44.530;18.620;2022-12-04T07:28:16;264.75;;;76.38;;
36415;SDS011;22447;44.530;18.620;2022-12-04T07:30:42;285.45;;;80.95;;
36415;SDS011;22447;44.530;18.620;2022-12-04T07:33:08;269.65;;;77.07;;
36415;SDS011;22447;44.530;18.620;2022-12-04T07:35:34;288.95;;;79.45;;
36415;SDS011;22447;44.530;18.620;2022-12-04T07:38:00;277.92;;;78.03;;
36415;SDS011;22447;44.530;18.620;2022-12-04T07:40:26;274.50;;;77.22;;
36415;SDS011;22447;44.530;18.620;2022-12-04T07:42:52;195.45;;;68.07;;
36415;SDS011;22447;44.530;18.620;2022-12-04T07:45:18;197.13;;;67.85;;
36415;SDS011;22447;44.530;18.620;2022-12-04T07:47:45;178.77;;;66.55;;
36415;SDS011;22447;44.530;18.620;2022-12-04T07:50:11;204.93;;;74.00;;
36415;SDS011;22447;44.530;18.620;2022-12-04T07:52:37;182.68;;;69.18;;
36415;SDS011;22447;44.530;18.620;2022-12-04T07:55:04;165.00;;;65.55;;
36415;SDS011;22447;44.530;18.620;2022-12-04T07:57:31;169.48;;;68.75;;
36415;SDS011;22447;44.530;18.620;2022-12-04T07:59:57;184.20;;;72.97;;
36415;SDS011;22447;44.530;18.620;2022-12-04T08:02:24;138.32;;;60.70;;
36415;SDS011;22447;44.530;18.620;2022-12-04T08:04:50;139.98;;;59.40;;
36415;SDS011;22447;44.530;18.620;2022-12-04T08:07:16;123.60;;;56.72;;
36415;SDS011;22447;44.530;18.620;2022-12-04T08:09:42;121.55;;;60.65;;
36415;SDS011;22447;44.530;18.620;2022-12-04T08:12:08;117.13;;;57.95;;
36415;SDS011;22447;44.530;18.620;2022-12-04T08:14:34;114.50;;;57.13;;
36415;SDS011;22447;44.530;18.620;2022-12-04T08:17:00;104.43;;;53.40;;
36415;SDS011;22447;44.530;18.620;2022-12-04T08:19:26;107.78;;;54.47;;
36415;SDS011;22447;44.530;18.620;2022-12-04T08:21:55;98.35;;;51.95;;
36415;SDS011;22447;44.530;18.620;2022-12-04T08:24:21;105.45;;;54.20;;
36415;SDS011;22447;44.530;18.620;2022-12-04T08:26:47;111.85;;;53.28;;
36415;SDS011;22447;44.530;18.620;2022-12-04T08:29:13;106.18;;;54.05;;
36415;SDS011;22447;44.530;18.620;2022-12-04T08:31:38;102.97;;;53.50;;
36415;SDS011;22447;44.530;18.620;2022-12-04T08:34:05;99.45;;;50.13;;
36415;SDS011;22447;44.530;18.620;2022-12-04T08:36:31;97.32;;;52.25;;
36415;SDS011;22447;44.530;18.620;2022-12-04T08:38:58;110.50;;;53.42;;
36415;SDS011;22447;44.530;18.620;2022-12-04T08:41:25;106.65;;;52.55;;
36415;SDS011;22447;44.530;18.620;2022-12-04T08:43:52;106.45;;;53.22;;
36415;SDS011;22447;44.530;18.620;2022-12-04T08:46:19;104.72;;;51.92;;
36415;SDS011;22447;44.530;18.620;2022-12-04T08:48:45;89.88;;;48.92;;
36415;SDS011;22447;44.530;18.620;2022-12-04T08:51:12;102.15;;;54.75;;
36415;SDS011;22447;44.530;18.620;2022-12-04T08:53:40;98.53;;;53.90;;
36415;SDS011;22447;44.530;18.620;2022-12-04T08:56:06;96.82;;;55.13;;
36415;SDS011;22447;44.530;18.620;2022-12-04T08:58:32;91.05;;;50.35;;
36415;SDS011;22447;44.530;18.620;2022-12-04T09:01:08;91.00;;;51.35;;
36415;SDS011;22447;44.530;18.620;2022-12-04T09:03:36;91.63;;;51.00;;
36415;SDS011;22447;44.530;18.620;2022-12-04T09:06:03;92.63;;;52.33;;
36415;SDS011;22447;44.530;18.620;2022-12-04T09:08:30;102.88;;;55.13;;
36415;SDS011;22447;44.530;18.620;2022-12-04T09:11:09;96.35;;;54.60;;
36415;SDS011;22447;44.530;18.620;2022-12-04T09:13:36;105.78;;;57.33;;
36415;SDS011;22447;44.530;18.620;2022-12-04T09:16:04;92.95;;;53.25;;
36415;SDS011;22447;44.530;18.620;2022-12-04T09:18:32;97.05;;;52.75;;
36415;SDS011;22447;44.530;18.620;2022-12-04T09:20:59;95.65;;;53.00;;
36415;SDS011;22447;44.530;18.620;2022-12-04T09:23:26;95.07;;;51.65;;
36415;SDS011;22447;44.530;18.620;2022-12-04T09:25:52;104.53;;;54.67;;
36415;SDS011;22447;44.530;18.620;2022-12-04T09:28:18;101.93;;;55.92;;
36415;SDS011;22447;44.530;18.620;2022-12-04T09:30:45;146.75;;;71.97;;
36415;SDS011;22447;44.530;18.620;2022-12-04T09:33:21;131.15;;;65.18;;
36415;SDS011;22447;44.530;18.620;2022-12-04T09:35:46;121.93;;;64.68;;
36415;SDS011;22447;44.530;18.620;2022-12-04T09:38:12;142.10;;;69.10;;
36415;SDS011;22447;44.530;18.620;2022-12-04T09:40:45;135.63;;;68.32;;
36415;SDS011;22447;44.530;18.620;2022-12-04T09:45:51;138.88;;;69.60;;
36415;SDS011;22447;44.530;18.620;2022-12-04T09:48:21;137.52;;;67.60;;
36415;SDS011;22447;44.530;18.620;2022-12-04T09:50:53;129.68;;;69.68;;
36415;SDS011;22447;44.530;18.620;2022-12-04T09:53:21;137.95;;;68.60;;
36415;SDS011;22447;44.530;18.620;2022-12-04T09:56:09;127.35;;;65.32;;
36415;SDS011;22447;44.530;18.620;2022-12-04T10:01:04;136.68;;;68.00;;
36415;SDS011;22447;44.530;18.620;2022-12-04T10:03:41;157.35;;;68.70;;
36415;SDS011;22447;44.530;18.620;2022-12-04T10:08:45;214.88;;;84.20;;
36415;SDS011;22447;44.530;18.620;2022-12-04T10:14:12;225.23;;;91.13;;
36415;SDS011;22447;44.530;18.620;2022-12-04T10:19:35;220.80;;;83.55;;
36415;SDS011;22447;44.530;18.620;2022-12-04T10:25:22;190.15;;;80.65;;
36415;SDS011;22447;44.530;18.620;2022-12-04T10:27:52;173.45;;;72.07;;
36415;SDS011;22447;44.530;18.620;2022-12-04T10:30:23;181.27;;;74.53;;
36415;SDS011;22447;44.530;18.620;2022-12-04T10:32:57;102.22;;;53.40;;
36415;SDS011;22447;44.530;18.620;2022-12-04T10:35:28;104.00;;;53.25;;
36415;SDS011;22447;44.530;18.620;2022-12-04T10:37:56;91.20;;;50.58;;
36415;SDS011;22447;44.530;18.620;2022-12-04T10:40:34;95.95;;;51.13;;
36415;SDS011;22447;44.530;18.620;2022-12-04T10:45:41;127.05;;;58.00;;
36415;SDS011;22447;44.530;18.620;2022-12-04T10:48:19;141.60;;;64.45;;
36415;SDS011;22447;44.530;18.620;2022-12-04T10:50:47;133.98;;;63.38;;
36415;SDS011;22447;44.530;18.620;2022-12-04T10:53:13;153.07;;;65.60;;
36415;SDS011;22447;44.530;18.620;2022-12-04T10:55:40;121.32;;;57.33;;
36415;SDS011;22447;44.530;18.620;2022-12-04T10:58:16;109.90;;;57.50;;
36415;SDS011;22447;44.530;18.620;2022-12-04T11:00:43;198.02;;;81.97;;
36415;SDS011;22447;44.530;18.620;2022-12-04T11:03:24;227.85;;;92.20;;
36415;SDS011;22447;44.530;18.620;2022-12-04T11:06:27;226.30;;;93.25;;
36415;SDS011;22447;44.530;18.620;2022-12-04T11:08:49;244.25;;;97.65;;
36415;SDS011;22447;44.530;18.620;2022-12-04T11:11:21;210.43;;;88.43;;
36415;SDS011;22447;44.530;18.620;2022-12-04T11:13:59;229.75;;;98.65;;
36415;SDS011;22447;44.530;18.620;2022-12-04T11:16:37;238.95;;;103.45;;
36415;SDS011;22447;44.530;18.620;2022-12-04T11:19:17;244.90;;;102.18;;
36415;SDS011;22447;44.530;18.620;2022-12-04T11:21:55;264.33;;;108.00;;
36415;SDS011;22447;44.530;18.620;2022-12-04T11:27:03;281.30;;;117.22;;
36415;SDS011;22447;44.530;18.620;2022-12-04T11:29:35;282.38;;;116.32;;
36415;SDS011;22447;44.530;18.620;2022-12-04T11:32:05;279.40;;;115.13;;
36415;SDS011;22447;44.530;18.620;2022-12-04T11:34:39;272.95;;;116.68;;
36415;SDS011;22447;44.530;18.620;2022-12-04T11:37:06;234.50;;;102.20;;
36415;SDS011;22447;44.530;18.620;2022-12-04T11:39:45;253.88;;;109.43;;
36415;SDS011;22447;44.530;18.620;2022-12-04T11:44:37;209.32;;;94.50;;
36415;SDS011;22447;44.530;18.620;2022-12-04T11:47:05;155.38;;;72.72;;
36415;SDS011;22447;44.530;18.620;2022-12-04T11:49:43;149.68;;;67.97;;
36415;SDS011;22447;44.530;18.620;2022-12-04T12:00:31;159.07;;;70.28;;
36415;SDS011;22447;44.530;18.620;2022-12-04T12:03:02;162.27;;;71.90;;
36415;SDS011;22447;44.530;18.620;2022-12-04T12:05:41;151.18;;;69.97;;
36415;SDS011;22447;44.530;18.620;2022-12-04T12:08:33;171.10;;;75.07;;
36415;SDS011;22447;44.530;18.620;2022-12-04T12:16:35;125.25;;;64.40;;
36415;SDS011;22447;44.530;18.620;2022-12-04T12:21:58;134.07;;;67.53;;
36415;SDS011;22447;44.530;18.620;2022-12-04T12:30:20;124.07;;;63.35;;
36415;SDS011;22447;44.530;18.620;2022-12-04T12:36:05;116.28;;;61.70;;
36415;SDS011;22447;44.530;18.620;2022-12-04T12:41:16;95.30;;;53.77;;
36415;SDS011;22447;44.530;18.620;2022-12-04T12:43:53;112.35;;;57.42;;
36415;SDS011;22447;44.530;18.620;2022-12-04T12:46:30;109.90;;;58.85;;
36415;SDS011;22447;44.530;18.620;2022-12-04T12:49:06;108.18;;;57.88;;
36415;SDS011;22447;44.530;18.620;2022-12-04T12:51:54;111.40;;;58.03;;
36415;SDS011;22447;44.530;18.620;2022-12-04T12:54:32;112.35;;;58.38;;
36415;SDS011;22447;44.530;18.620;2022-12-04T12:57:06;104.78;;;57.22;;
36415;SDS011;22447;44.530;18.620;2022-12-04T12:59:46;111.55;;;59.70;;
36415;SDS011;22447;44.530;18.620;2022-12-04T13:02:30;128.43;;;64.95;;
36415;SDS011;22447;44.530;18.620;2022-12-04T13:05:06;113.25;;;59.25;;
36415;SDS011;22447;44.530;18.620;2022-12-04T13:13:27;125.32;;;63.78;;
36415;SDS011;22447;44.530;18.620;2022-12-04T13:15:56;147.18;;;71.47;;
36415;SDS011;22447;44.530;18.620;2022-12-04T13:18:31;135.55;;;64.53;;
36415;SDS011;22447;44.530;18.620;2022-12-04T13:21:16;117.43;;;60.55;;
36415;SDS011;22447;44.530;18.620;2022-12-04T13:23:59;117.22;;;62.00;;
36415;SDS011;22447;44.530;18.620;2022-12-04T13:29:37;113.50;;;59.13;;
36415;SDS011;22447;44.530;18.620;2022-12-04T13:32:30;124.32;;;61.45;;
36415;SDS011;22447;44.530;18.620;2022-12-04T13:40:39;128.23;;;62.60;;
36415;SDS011;22447;44.530;18.620;2022-12-04T13:46:24;105.97;;;55.22;;
36415;SDS011;22447;44.530;18.620;2022-12-04T13:51:44;109.22;;;55.75;;
36415;SDS011;22447;44.530;18.620;2022-12-04T13:56:40;100.75;;;54.20;;
36415;SDS011;22447;44.530;18.620;2022-12-04T14:01:56;101.45;;;52.35;;
36415;SDS011;22447;44.530;18.620;2022-12-04T14:04:31;93.70;;;50.10;;
36415;SDS011;22447;44.530;18.620;2022-12-04T14:07:06;96.93;;;51.30;;
36415;SDS011;22447;44.530;18.620;2022-12-04T14:09:41;101.78;;;52.85;;
36415;SDS011;22447;44.530;18.620;2022-12-04T14:12:13;96.72;;;49.63;;
36415;SDS011;22447;44.530;18.620;2022-12-04T14:17:26;93.40;;;48.45;;
36415;SDS011;22447;44.530;18.620;2022-12-04T14:20:55;90.03;;;45.05;;
36415;SDS011;22447;44.530;18.620;2022-12-04T14:22:54;82.28;;;43.38;;
36415;SDS011;22447;44.530;18.620;2022-12-04T14:25:35;91.57;;;45.10;;
36415;SDS011;22447;44.530;18.620;2022-12-04T14:36:32;93.07;;;47.33;;
36415;SDS011;22447;44.530;18.620;2022-12-04T14:39:07;92.88;;;49.65;;
36415;SDS011;22447;44.530;18.620;2022-12-04T14:45:01;100.13;;;50.95;;
36415;SDS011;22447;44.530;18.620;2022-12-04T14:47:48;107.13;;;51.78;;
36415;SDS011;22447;44.530;18.620;2022-12-04T14:53:15;103.38;;;50.65;;
36415;SDS011;22447;44.530;18.620;2022-12-04T14:58:42;92.47;;;47.13;;
36415;SDS011;22447;44.530;18.620;2022-12-04T15:01:19;87.57;;;46.55;;
36415;SDS011;22447;44.530;18.620;2022-12-04T15:03:49;90.13;;;47.55;;
36415;SDS011;22447;44.530;18.620;2022-12-04T15:06:19;89.53;;;45.77;;
36415;SDS011;22447;44.530;18.620;2022-12-04T15:08:51;96.60;;;50.25;;
36415;SDS011;22447;44.530;18.620;2022-12-04T15:11:43;92.05;;;48.47;;
36415;SDS011;22447;44.530;18.620;2022-12-04T15:14:41;93.85;;;48.70;;
36415;SDS011;22447;44.530;18.620;2022-12-04T15:17:09;98.18;;;52.55;;
36415;SDS011;22447;44.530;18.620;2022-12-04T15:19:36;101.50;;;53.45;;
36415;SDS011;22447;44.530;18.620;2022-12-04T15:22:04;97.75;;;52.00;;
36415;SDS011;22447;44.530;18.620;2022-12-04T15:24:35;122.25;;;60.15;;
36415;SDS011;22447;44.530;18.620;2022-12-04T15:27:02;115.47;;;58.78;;
36415;SDS011;22447;44.530;18.620;2022-12-04T15:29:30;142.55;;;66.55;;
36415;SDS011;22447;44.530;18.620;2022-12-04T15:32:01;256.52;;;107.82;;
36415;SDS011;22447;44.530;18.620;2022-12-04T15:37:15;201.70;;;80.95;;
36415;SDS011;22447;44.530;18.620;2022-12-04T15:44:49;207.43;;;84.68;;
36415;SDS011;22447;44.530;18.620;2022-12-04T15:47:27;127.45;;;60.85;;
36415;SDS011;22447;44.530;18.620;2022-12-04T15:50:06;119.65;;;58.63;;
36415;SDS011;22447;44.530;18.620;2022-12-04T15:52:46;103.82;;;51.97;;
36415;SDS011;22447;44.530;18.620;2022-12-04T15:55:15;106.22;;;54.95;;
36415;SDS011;22447;44.530;18.620;2022-12-04T15:57:48;103.72;;;52.38;;
36415;SDS011;22447;44.530;18.620;2022-12-04T16:00:24;101.50;;;50.92;;
36415;SDS011;22447;44.530;18.620;2022-12-04T16:02:58;94.65;;;50.70;;
36415;SDS011;22447;44.530;18.620;2022-12-04T16:10:43;197.93;;;80.78;;
36415;SDS011;22447;44.530;18.620;2022-12-04T16:13:26;159.07;;;69.88;;
36415;SDS011;22447;44.530;18.620;2022-12-04T16:15:56;153.27;;;72.72;;
36415;SDS011;22447;44.530;18.620;2022-12-04T16:18:26;152.63;;;69.50;;
36415;SDS011;22447;44.530;18.620;2022-12-04T16:20:52;132.75;;;64.95;;
36415;SDS011;22447;44.530;18.620;2022-12-04T16:23:21;123.30;;;62.50;;
36415;SDS011;22447;44.530;18.620;2022-12-04T16:25:48;120.38;;;60.83;;
36415;SDS011;22447;44.530;18.620;2022-12-04T16:28:14;112.65;;;58.22;;
36415;SDS011;22447;44.530;18.620;2022-12-04T16:30:39;117.47;;;57.97;;
36415;SDS011;22447;44.530;18.620;2022-12-04T16:33:05;124.47;;;61.17;;
36415;SDS011;22447;44.530;18.620;2022-12-04T16:35:36;126.97;;;59.10;;
36415;SDS011;22447;44.530;18.620;2022-12-04T16:38:02;125.60;;;61.33;;
36415;SDS011;22447;44.530;18.620;2022-12-04T16:40:28;134.13;;;66.00;;
36415;SDS011;22447;44.530;18.620;2022-12-04T16:42:54;136.23;;;64.90;;
36415;SDS011;22447;44.530;18.620;2022-12-04T16:45:21;197.65;;;85.05;;
36415;SDS011;22447;44.530;18.620;2022-12-04T16:47:53;157.93;;;77.70;;